sensor_id;sensor_type;location;lat;lon;timestamp;P1;durP1;ratioP1;P2;durP2;ratioP2
63050;SDS011;49136;47.416;19.402;2024-02-26T00:00:25;70.75;;;67.30;;
63050;SDS011;49136;47.416;19.402;2024-02-26T00:02:51;74.15;;;70.47;;
63050;SDS011;49136;47.416;19.402;2024-02-26T00:05:16;70.28;;;66.78;;
63050;SDS011;49136;47.416;19.402;2024-02-26T00:07:41;62.67;;;59.58;;
63050;SDS011;49136;47.416;19.402;2024-02-26T00:10:07;68.00;;;64.30;;
63050;SDS011;49136;47.416;19.402;2024-02-26T00:12:33;69.43;;;65.95;;
63050;SDS011;49136;47.416;19.402;2024-02-26T00:14:59;70.63;;;66.97;;
63050;SDS011;49136;47.416;19.402;2024-02-26T00:17:24;69.10;;;65.68;;
63050;SDS011;49136;47.416;19.402;2024-02-26T00:19:50;75.00;;;71.10;;
63050;SDS011;49136;47.416;19.402;2024-02-26T00:22:15;68.03;;;64.65;;
63050;SDS011;49136;47.416;19.402;2024-02-26T00:24:41;84.97;;;80.80;;
63050;SDS011;49136;47.416;19.402;2024-02-26T00:27:06;69.55;;;66.05;;
63050;SDS011;49136;47.416;19.402;2024-02-26T00:29:32;67.07;;;63.70;;
63050;SDS011;49136;47.416;19.402;2024-02-26T00:31:57;71.68;;;67.85;;
63050;SDS011;49136;47.416;19.402;2024-02-26T00:34:23;69.60;;;66.20;;
63050;SDS011;49136;47.416;19.402;2024-02-26T00:36:49;65.13;;;61.90;;
63050;SDS011;49136;47.416;19.402;2024-02-26T00:39:14;66.78;;;63.47;;
63050;SDS011;49136;47.416;19.402;2024-02-26T00:41:40;68.07;;;64.72;;
63050;SDS011;49136;47.416;19.402;2024-02-26T00:44:06;74.65;;;70.78;;
63050;SDS011;49136;47.416;19.402;2024-02-26T00:46:31;78.63;;;74.75;;
63050;SDS011;49136;47.416;19.402;2024-02-26T00:48:57;65.85;;;62.67;;
63050;SDS011;49136;47.416;19.402;2024-02-26T00:51:22;63.55;;;60.40;;
63050;SDS011;49136;47.416;19.402;2024-02-26T00:53:47;60.30;;;57.38;;
63050;SDS011;49136;47.416;19.402;2024-02-26T00:56:13;73.38;;;69.80;;
63050;SDS011;49136;47.416;19.402;2024-02-26T00:58:38;67.68;;;64.38;;
63050;SDS011;49136;47.416;19.402;2024-02-26T01:01:04;60.38;;;57.42;;
63050;SDS011;49136;47.416;19.402;2024-02-26T01:03:29;63.45;;;60.35;;
63050;SDS011;49136;47.416;19.402;2024-02-26T01:05:55;70.30;;;66.47;;
63050;SDS011;49136;47.416;19.402;2024-02-26T01:08:20;58.53;;;55.60;;
63050;SDS011;49136;47.416;19.402;2024-02-26T01:10:45;63.15;;;60.03;;
63050;SDS011;49136;47.416;19.402;2024-02-26T01:13:11;68.45;;;64.95;;
63050;SDS011;49136;47.416;19.402;2024-02-26T01:15:36;72.32;;;68.63;;
63050;SDS011;49136;47.416;19.402;2024-02-26T01:18:02;70.40;;;67.00;;
63050;SDS011;49136;47.416;19.402;2024-02-26T01:20:27;65.88;;;62.60;;
63050;SDS011;49136;47.416;19.402;2024-02-26T01:23:08;57.92;;;55.05;;
63050;SDS011;49136;47.416;19.402;2024-02-26T01:25:34;73.60;;;69.95;;
63050;SDS011;49136;47.416;19.402;2024-02-26T01:27:59;63.50;;;60.35;;
63050;SDS011;49136;47.416;19.402;2024-02-26T01:30:24;63.13;;;60.00;;
63050;SDS011;49136;47.416;19.402;2024-02-26T01:32:50;70.60;;;67.18;;
63050;SDS011;49136;47.416;19.402;2024-02-26T01:35:15;64.65;;;61.53;;
63050;SDS011;49136;47.416;19.402;2024-02-26T01:37:40;68.07;;;64.63;;
63050;SDS011;49136;47.416;19.402;2024-02-26T01:40:07;67.82;;;64.47;;
63050;SDS011;49136;47.416;19.402;2024-02-26T01:42:34;70.78;;;67.22;;
63050;SDS011;49136;47.416;19.402;2024-02-26T01:45:00;76.22;;;72.38;;
63050;SDS011;49136;47.416;19.402;2024-02-26T01:47:25;68.10;;;64.75;;
63050;SDS011;49136;47.416;19.402;2024-02-26T01:49:52;61.95;;;58.85;;
63050;SDS011;49136;47.416;19.402;2024-02-26T01:52:18;60.72;;;57.47;;
63050;SDS011;49136;47.416;19.402;2024-02-26T01:54:43;70.28;;;66.80;;
63050;SDS011;49136;47.416;19.402;2024-02-26T01:57:10;61.00;;;58.03;;
63050;SDS011;49136;47.416;19.402;2024-02-26T01:59:37;58.60;;;55.75;;
63050;SDS011;49136;47.416;19.402;2024-02-26T02:02:05;54.10;;;51.47;;
63050;SDS011;49136;47.416;19.402;2024-02-26T02:04:34;68.65;;;65.28;;
63050;SDS011;49136;47.416;19.402;2024-02-26T02:07:00;62.45;;;59.22;;
63050;SDS011;49136;47.416;19.402;2024-02-26T02:09:27;61.05;;;58.08;;
63050;SDS011;49136;47.416;19.402;2024-02-26T02:11:53;71.75;;;68.32;;
63050;SDS011;49136;47.416;19.402;2024-02-26T02:14:18;52.47;;;49.95;;
63050;SDS011;49136;47.416;19.402;2024-02-26T02:16:44;61.90;;;58.88;;
63050;SDS011;49136;47.416;19.402;2024-02-26T02:19:09;57.28;;;54.30;;
63050;SDS011;49136;47.416;19.402;2024-02-26T02:21:34;68.20;;;64.78;;
63050;SDS011;49136;47.416;19.402;2024-02-26T02:24:00;67.65;;;64.25;;
63050;SDS011;49136;47.416;19.402;2024-02-26T02:26:25;69.35;;;65.85;;
63050;SDS011;49136;47.416;19.402;2024-02-26T02:28:51;69.88;;;66.47;;
63050;SDS011;49136;47.416;19.402;2024-02-26T02:31:18;66.63;;;63.35;;
63050;SDS011;49136;47.416;19.402;2024-02-26T02:33:43;62.03;;;58.85;;
63050;SDS011;49136;47.416;19.402;2024-02-26T02:36:09;59.45;;;56.65;;
63050;SDS011;49136;47.416;19.402;2024-02-26T02:38:38;59.25;;;56.38;;
63050;SDS011;49136;47.416;19.402;2024-02-26T02:41:15;65.28;;;62.13;;
63050;SDS011;49136;47.416;19.402;2024-02-26T02:43:40;66.53;;;63.33;;
63050;SDS011;49136;47.416;19.402;2024-02-26T02:46:06;80.30;;;76.32;;
63050;SDS011;49136;47.416;19.402;2024-02-26T02:48:31;49.22;;;46.97;;
63050;SDS011;49136;47.416;19.402;2024-02-26T02:50:57;64.13;;;60.75;;
63050;SDS011;49136;47.416;19.402;2024-02-26T02:53:22;67.75;;;64.47;;
63050;SDS011;49136;47.416;19.402;2024-02-26T02:55:47;79.15;;;75.22;;
63050;SDS011;49136;47.416;19.402;2024-02-26T02:58:13;71.22;;;67.65;;
63050;SDS011;49136;47.416;19.402;2024-02-26T03:00:38;57.10;;;54.38;;
63050;SDS011;49136;47.416;19.402;2024-02-26T03:03:04;59.13;;;56.30;;
63050;SDS011;49136;47.416;19.402;2024-02-26T03:05:29;62.05;;;58.97;;
63050;SDS011;49136;47.416;19.402;2024-02-26T03:07:55;67.68;;;64.10;;
63050;SDS011;49136;47.416;19.402;2024-02-26T03:10:20;55.63;;;52.88;;
63050;SDS011;49136;47.416;19.402;2024-02-26T03:12:46;65.95;;;62.70;;
63050;SDS011;49136;47.416;19.402;2024-02-26T03:15:11;70.88;;;67.13;;
63050;SDS011;49136;47.416;19.402;2024-02-26T03:17:37;68.38;;;65.13;;
63050;SDS011;49136;47.416;19.402;2024-02-26T03:20:02;68.82;;;65.32;;
63050;SDS011;49136;47.416;19.402;2024-02-26T03:22:30;68.28;;;64.82;;
63050;SDS011;49136;47.416;19.402;2024-02-26T03:24:56;64.43;;;61.38;;
63050;SDS011;49136;47.416;19.402;2024-02-26T03:27:22;77.28;;;73.35;;
63050;SDS011;49136;47.416;19.402;2024-02-26T03:29:48;67.90;;;64.68;;
63050;SDS011;49136;47.416;19.402;2024-02-26T03:32:14;75.65;;;71.95;;
63050;SDS011;49136;47.416;19.402;2024-02-26T03:34:39;47.90;;;45.67;;
63050;SDS011;49136;47.416;19.402;2024-02-26T03:37:05;67.20;;;64.00;;
63050;SDS011;49136;47.416;19.402;2024-02-26T03:39:31;53.13;;;50.38;;
63050;SDS011;49136;47.416;19.402;2024-02-26T03:41:57;66.90;;;62.85;;
63050;SDS011;49136;47.416;19.402;2024-02-26T03:44:22;52.80;;;49.78;;
63050;SDS011;49136;47.416;19.402;2024-02-26T03:46:47;109.43;;;99.75;;
63050;SDS011;49136;47.416;19.402;2024-02-26T03:49:13;64.53;;;61.28;;
63050;SDS011;49136;47.416;19.402;2024-02-26T03:51:38;48.17;;;45.88;;
63050;SDS011;49136;47.416;19.402;2024-02-26T03:54:04;203.82;;;163.25;;
63050;SDS011;49136;47.416;19.402;2024-02-26T03:56:29;59.80;;;56.70;;
63050;SDS011;49136;47.416;19.402;2024-02-26T03:58:55;67.22;;;63.80;;
63050;SDS011;49136;47.416;19.402;2024-02-26T04:01:20;55.22;;;52.70;;
63050;SDS011;49136;47.416;19.402;2024-02-26T04:03:45;68.88;;;65.40;;
63050;SDS011;49136;47.416;19.402;2024-02-26T04:06:11;62.25;;;59.20;;
63050;SDS011;49136;47.416;19.402;2024-02-26T04:08:39;58.08;;;55.17;;
63050;SDS011;49136;47.416;19.402;2024-02-26T04:11:05;52.38;;;49.67;;
63050;SDS011;49136;47.416;19.402;2024-02-26T04:13:32;65.88;;;62.90;;
63050;SDS011;49136;47.416;19.402;2024-02-26T04:15:58;51.80;;;49.40;;
63050;SDS011;49136;47.416;19.402;2024-02-26T04:18:26;122.78;;;116.13;;
63050;SDS011;49136;47.416;19.402;2024-02-26T04:20:52;51.45;;;49.03;;
63050;SDS011;49136;47.416;19.402;2024-02-26T04:23:17;91.97;;;86.38;;
63050;SDS011;49136;47.416;19.402;2024-02-26T04:25:42;55.75;;;53.05;;
63050;SDS011;49136;47.416;19.402;2024-02-26T04:28:08;50.75;;;48.13;;
63050;SDS011;49136;47.416;19.402;2024-02-26T04:30:33;53.10;;;50.45;;
63050;SDS011;49136;47.416;19.402;2024-02-26T04:32:59;50.92;;;48.40;;
63050;SDS011;49136;47.416;19.402;2024-02-26T04:35:24;50.45;;;47.83;;
63050;SDS011;49136;47.416;19.402;2024-02-26T04:37:49;59.95;;;56.92;;
63050;SDS011;49136;47.416;19.402;2024-02-26T04:40:15;59.65;;;56.75;;
63050;SDS011;49136;47.416;19.402;2024-02-26T04:42:40;59.50;;;56.65;;
63050;SDS011;49136;47.416;19.402;2024-02-26T04:45:06;53.97;;;51.40;;
63050;SDS011;49136;47.416;19.402;2024-02-26T04:47:33;56.53;;;53.67;;
63050;SDS011;49136;47.416;19.402;2024-02-26T04:49:58;92.20;;;87.68;;
63050;SDS011;49136;47.416;19.402;2024-02-26T04:52:24;48.40;;;46.15;;
63050;SDS011;49136;47.416;19.402;2024-02-26T04:54:49;50.80;;;48.50;;
63050;SDS011;49136;47.416;19.402;2024-02-26T04:57:15;54.60;;;51.90;;
63050;SDS011;49136;47.416;19.402;2024-02-26T04:59:43;57.08;;;54.40;;
63050;SDS011;49136;47.416;19.402;2024-02-26T05:02:09;58.95;;;56.17;;
63050;SDS011;49136;47.416;19.402;2024-02-26T05:04:34;134.80;;;126.40;;
63050;SDS011;49136;47.416;19.402;2024-02-26T05:07:00;92.18;;;87.57;;
63050;SDS011;49136;47.416;19.402;2024-02-26T05:09:25;64.95;;;61.70;;
63050;SDS011;49136;47.416;19.402;2024-02-26T05:11:51;58.30;;;55.53;;
63050;SDS011;49136;47.416;19.402;2024-02-26T05:14:16;73.00;;;68.82;;
63050;SDS011;49136;47.416;19.402;2024-02-26T05:16:49;61.63;;;58.70;;
63050;SDS011;49136;47.416;19.402;2024-02-26T05:19:14;70.63;;;67.32;;
63050;SDS011;49136;47.416;19.402;2024-02-26T05:24:37;86.45;;;82.15;;
63050;SDS011;49136;47.416;19.402;2024-02-26T05:27:08;52.65;;;50.15;;
63050;SDS011;49136;47.416;19.402;2024-02-26T05:29:33;87.72;;;83.45;;
63050;SDS011;49136;47.416;19.402;2024-02-26T05:31:59;74.55;;;70.63;;
63050;SDS011;49136;47.416;19.402;2024-02-26T05:34:24;60.22;;;57.17;;
63050;SDS011;49136;47.416;19.402;2024-02-26T05:36:50;56.58;;;53.45;;
63050;SDS011;49136;47.416;19.402;2024-02-26T05:39:15;66.22;;;62.65;;
63050;SDS011;49136;47.416;19.402;2024-02-26T05:41:41;61.08;;;58.05;;
63050;SDS011;49136;47.416;19.402;2024-02-26T05:44:08;73.47;;;69.10;;
63050;SDS011;49136;47.416;19.402;2024-02-26T05:46:35;54.72;;;52.20;;
63050;SDS011;49136;47.416;19.402;2024-02-26T05:49:03;66.40;;;63.28;;
63050;SDS011;49136;47.416;19.402;2024-02-26T05:51:28;78.95;;;75.00;;
63050;SDS011;49136;47.416;19.402;2024-02-26T05:53:53;146.48;;;138.73;;
63050;SDS011;49136;47.416;19.402;2024-02-26T05:56:22;64.63;;;61.47;;
63050;SDS011;49136;47.416;19.402;2024-02-26T05:58:48;85.28;;;80.72;;
63050;SDS011;49136;47.416;19.402;2024-02-26T06:01:15;57.53;;;54.80;;
63050;SDS011;49136;47.416;19.402;2024-02-26T06:03:41;57.55;;;54.90;;
63050;SDS011;49136;47.416;19.402;2024-02-26T06:06:07;56.03;;;53.40;;
63050;SDS011;49136;47.416;19.402;2024-02-26T06:08:32;57.45;;;54.55;;
63050;SDS011;49136;47.416;19.402;2024-02-26T06:10:58;155.93;;;142.48;;
63050;SDS011;49136;47.416;19.402;2024-02-26T06:13:24;77.53;;;73.70;;
63050;SDS011;49136;47.416;19.402;2024-02-26T06:15:49;52.38;;;49.97;;
63050;SDS011;49136;47.416;19.402;2024-02-26T06:18:14;53.58;;;50.95;;
63050;SDS011;49136;47.416;19.402;2024-02-26T06:20:41;87.20;;;82.90;;
63050;SDS011;49136;47.416;19.402;2024-02-26T06:23:06;57.42;;;54.50;;
63050;SDS011;49136;47.416;19.402;2024-02-26T06:25:32;56.42;;;53.80;;
63050;SDS011;49136;47.416;19.402;2024-02-26T06:27:57;60.38;;;57.50;;
63050;SDS011;49136;47.416;19.402;2024-02-26T06:30:32;52.83;;;49.95;;
63050;SDS011;49136;47.416;19.402;2024-02-26T06:33:01;65.30;;;61.20;;
63050;SDS011;49136;47.416;19.402;2024-02-26T06:35:27;48.47;;;46.22;;
63050;SDS011;49136;47.416;19.402;2024-02-26T06:37:52;51.33;;;48.85;;
63050;SDS011;49136;47.416;19.402;2024-02-26T06:40:18;60.85;;;57.88;;
63050;SDS011;49136;47.416;19.402;2024-02-26T06:42:44;63.40;;;59.95;;
63050;SDS011;49136;47.416;19.402;2024-02-26T06:45:10;59.22;;;55.83;;
63050;SDS011;49136;47.416;19.402;2024-02-26T06:47:35;50.38;;;47.97;;
63050;SDS011;49136;47.416;19.402;2024-02-26T06:50:01;54.75;;;51.95;;
63050;SDS011;49136;47.416;19.402;2024-02-26T06:52:26;54.03;;;51.17;;
63050;SDS011;49136;47.416;19.402;2024-02-26T06:54:52;55.35;;;52.40;;
63050;SDS011;49136;47.416;19.402;2024-02-26T06:57:21;52.17;;;49.55;;
63050;SDS011;49136;47.416;19.402;2024-02-26T06:59:46;49.53;;;46.80;;
63050;SDS011;49136;47.416;19.402;2024-02-26T07:02:13;42.55;;;40.40;;
63050;SDS011;49136;47.416;19.402;2024-02-26T07:04:38;63.53;;;59.92;;
63050;SDS011;49136;47.416;19.402;2024-02-26T07:07:04;57.25;;;54.35;;
63050;SDS011;49136;47.416;19.402;2024-02-26T07:09:29;63.35;;;59.60;;
63050;SDS011;49136;47.416;19.402;2024-02-26T07:11:55;47.10;;;44.20;;
63050;SDS011;49136;47.416;19.402;2024-02-26T07:14:20;66.95;;;63.33;;
63050;SDS011;49136;47.416;19.402;2024-02-26T07:16:46;103.50;;;97.65;;
63050;SDS011;49136;47.416;19.402;2024-02-26T07:19:11;46.85;;;44.47;;
63050;SDS011;49136;47.416;19.402;2024-02-26T07:21:36;60.58;;;57.33;;
63050;SDS011;49136;47.416;19.402;2024-02-26T07:24:02;53.92;;;51.22;;
63050;SDS011;49136;47.416;19.402;2024-02-26T07:26:27;54.50;;;51.40;;
63050;SDS011;49136;47.416;19.402;2024-02-26T07:28:55;57.05;;;53.92;;
63050;SDS011;49136;47.416;19.402;2024-02-26T07:31:21;43.67;;;41.58;;
63050;SDS011;49136;47.416;19.402;2024-02-26T07:33:46;61.58;;;58.45;;
63050;SDS011;49136;47.416;19.402;2024-02-26T07:36:12;49.00;;;46.60;;
63050;SDS011;49136;47.416;19.402;2024-02-26T07:38:37;57.33;;;54.45;;
63050;SDS011;49136;47.416;19.402;2024-02-26T07:41:03;47.78;;;45.42;;
63050;SDS011;49136;47.416;19.402;2024-02-26T07:43:29;50.58;;;48.13;;
63050;SDS011;49136;47.416;19.402;2024-02-26T07:45:55;52.17;;;49.45;;
63050;SDS011;49136;47.416;19.402;2024-02-26T07:48:20;60.42;;;57.47;;
63050;SDS011;49136;47.416;19.402;2024-02-26T07:50:46;63.70;;;60.55;;
63050;SDS011;49136;47.416;19.402;2024-02-26T07:53:11;52.38;;;49.47;;
63050;SDS011;49136;47.416;19.402;2024-02-26T07:55:36;62.70;;;59.55;;
63050;SDS011;49136;47.416;19.402;2024-02-26T07:58:02;51.90;;;49.30;;
63050;SDS011;49136;47.416;19.402;2024-02-26T08:00:28;63.00;;;59.83;;
63050;SDS011;49136;47.416;19.402;2024-02-26T08:02:53;55.65;;;52.90;;
63050;SDS011;49136;47.416;19.402;2024-02-26T08:05:19;72.80;;;69.03;;
63050;SDS011;49136;47.416;19.402;2024-02-26T08:07:47;64.75;;;61.50;;
63050;SDS011;49136;47.416;19.402;2024-02-26T08:10:13;79.28;;;75.18;;
63050;SDS011;49136;47.416;19.402;2024-02-26T08:12:38;58.90;;;56.13;;
63050;SDS011;49136;47.416;19.402;2024-02-26T08:15:04;61.10;;;57.75;;
63050;SDS011;49136;47.416;19.402;2024-02-26T08:17:30;78.22;;;74.13;;
63050;SDS011;49136;47.416;19.402;2024-02-26T08:19:57;119.93;;;113.03;;
63050;SDS011;49136;47.416;19.402;2024-02-26T08:22:23;89.05;;;84.38;;
63050;SDS011;49136;47.416;19.402;2024-02-26T08:24:49;115.90;;;109.55;;
63050;SDS011;49136;47.416;19.402;2024-02-26T08:27:14;82.80;;;78.35;;
63050;SDS011;49136;47.416;19.402;2024-02-26T08:29:39;93.55;;;88.68;;
63050;SDS011;49136;47.416;19.402;2024-02-26T08:32:05;99.22;;;93.88;;
63050;SDS011;49136;47.416;19.402;2024-02-26T08:34:32;123.78;;;116.80;;
63050;SDS011;49136;47.416;19.402;2024-02-26T08:37:00;120.90;;;114.03;;
63050;SDS011;49136;47.416;19.402;2024-02-26T08:39:25;115.15;;;108.88;;
63050;SDS011;49136;47.416;19.402;2024-02-26T08:41:51;120.55;;;113.13;;
63050;SDS011;49136;47.416;19.402;2024-02-26T08:44:17;114.35;;;107.95;;
63050;SDS011;49136;47.416;19.402;2024-02-26T08:46:44;129.77;;;122.32;;
63050;SDS011;49136;47.416;19.402;2024-02-26T08:49:11;150.52;;;141.90;;
63050;SDS011;49136;47.416;19.402;2024-02-26T08:51:40;120.85;;;113.90;;
63050;SDS011;49136;47.416;19.402;2024-02-26T08:54:07;146.55;;;138.10;;
63050;SDS011;49136;47.416;19.402;2024-02-26T08:56:32;153.40;;;143.38;;
63050;SDS011;49136;47.416;19.402;2024-02-26T08:58:59;160.35;;;149.50;;
63050;SDS011;49136;47.416;19.402;2024-02-26T09:01:28;171.98;;;161.07;;
63050;SDS011;49136;47.416;19.402;2024-02-26T09:03:54;149.80;;;140.18;;
63050;SDS011;49136;47.416;19.402;2024-02-26T09:06:19;172.70;;;161.52;;
63050;SDS011;49136;47.416;19.402;2024-02-26T09:08:45;231.38;;;215.25;;
63050;SDS011;49136;47.416;19.402;2024-02-26T09:11:10;203.43;;;189.68;;
63050;SDS011;49136;47.416;19.402;2024-02-26T09:13:36;218.27;;;204.02;;
63050;SDS011;49136;47.416;19.402;2024-02-26T09:16:01;225.70;;;210.77;;
63050;SDS011;49136;47.416;19.402;2024-02-26T09:18:27;237.60;;;221.82;;
63050;SDS011;49136;47.416;19.402;2024-02-26T09:20:55;200.82;;;188.30;;
63050;SDS011;49136;47.416;19.402;2024-02-26T09:23:20;214.27;;;201.13;;
63050;SDS011;49136;47.416;19.402;2024-02-26T09:25:46;205.13;;;192.77;;
63050;SDS011;49136;47.416;19.402;2024-02-26T09:28:11;213.43;;;198.57;;
63050;SDS011;49136;47.416;19.402;2024-02-26T09:30:37;258.65;;;241.05;;
63050;SDS011;49136;47.416;19.402;2024-02-26T09:33:03;211.45;;;198.73;;
63050;SDS011;49136;47.416;19.402;2024-02-26T09:35:29;205.77;;;192.80;;
63050;SDS011;49136;47.416;19.402;2024-02-26T09:37:55;198.75;;;186.30;;
63050;SDS011;49136;47.416;19.402;2024-02-26T09:40:20;148.35;;;140.23;;
63050;SDS011;49136;47.416;19.402;2024-02-26T09:42:47;163.82;;;153.95;;
63050;SDS011;49136;47.416;19.402;2024-02-26T09:45:18;173.90;;;162.30;;
63050;SDS011;49136;47.416;19.402;2024-02-26T09:47:45;167.43;;;156.38;;
63050;SDS011;49136;47.416;19.402;2024-02-26T09:50:12;172.65;;;161.55;;
63050;SDS011;49136;47.416;19.402;2024-02-26T09:52:40;158.55;;;149.15;;
63050;SDS011;49136;47.416;19.402;2024-02-26T09:55:10;188.57;;;175.95;;
63050;SDS011;49136;47.416;19.402;2024-02-26T09:57:43;181.98;;;169.40;;
63050;SDS011;49136;47.416;19.402;2024-02-26T10:00:14;191.20;;;177.32;;
63050;SDS011;49136;47.416;19.402;2024-02-26T10:02:44;169.77;;;158.60;;
63050;SDS011;49136;47.416;19.402;2024-02-26T10:05:12;177.45;;;165.80;;
63050;SDS011;49136;47.416;19.402;2024-02-26T10:07:41;243.73;;;226.55;;
63050;SDS011;49136;47.416;19.402;2024-02-26T10:10:09;180.82;;;168.10;;
63050;SDS011;49136;47.416;19.402;2024-02-26T10:12:34;173.93;;;160.95;;
63050;SDS011;49136;47.416;19.402;2024-02-26T10:15:00;152.85;;;143.05;;
63050;SDS011;49136;47.416;19.402;2024-02-26T10:17:26;144.70;;;134.93;;
63050;SDS011;49136;47.416;19.402;2024-02-26T10:19:52;138.73;;;130.20;;
63050;SDS011;49136;47.416;19.402;2024-02-26T10:22:21;173.25;;;161.38;;
63050;SDS011;49136;47.416;19.402;2024-02-26T10:24:47;198.55;;;184.07;;
63050;SDS011;49136;47.416;19.402;2024-02-26T10:27:12;155.43;;;144.68;;
63050;SDS011;49136;47.416;19.402;2024-02-26T10:29:38;218.30;;;202.77;;
63050;SDS011;49136;47.416;19.402;2024-02-26T10:32:03;187.82;;;173.60;;
63050;SDS011;49136;47.416;19.402;2024-02-26T10:34:29;168.00;;;157.23;;
63050;SDS011;49136;47.416;19.402;2024-02-26T10:36:56;205.75;;;190.82;;
63050;SDS011;49136;47.416;19.402;2024-02-26T10:39:28;243.13;;;225.27;;
63050;SDS011;49136;47.416;19.402;2024-02-26T10:41:53;226.02;;;208.55;;
63050;SDS011;49136;47.416;19.402;2024-02-26T10:44:21;227.27;;;209.98;;
63050;SDS011;49136;47.416;19.402;2024-02-26T10:46:47;206.82;;;192.52;;
63050;SDS011;49136;47.416;19.402;2024-02-26T10:49:16;189.70;;;176.30;;
63050;SDS011;49136;47.416;19.402;2024-02-26T10:51:45;222.13;;;205.63;;
63050;SDS011;49136;47.416;19.402;2024-02-26T10:54:25;240.43;;;222.00;;
63050;SDS011;49136;47.416;19.402;2024-02-26T10:56:56;303.50;;;280.50;;
63050;SDS011;49136;47.416;19.402;2024-02-26T10:59:22;313.08;;;287.48;;
63050;SDS011;49136;47.416;19.402;2024-02-26T11:01:48;271.83;;;251.43;;
63050;SDS011;49136;47.416;19.402;2024-02-26T11:04:16;348.13;;;319.63;;
63050;SDS011;49136;47.416;19.402;2024-02-26T11:06:43;354.05;;;326.92;;
63050;SDS011;49136;47.416;19.402;2024-02-26T11:09:10;329.60;;;302.65;;
63050;SDS011;49136;47.416;19.402;2024-02-26T11:11:40;316.52;;;292.35;;
63050;SDS011;49136;47.416;19.402;2024-02-26T11:14:06;330.15;;;305.35;;
63050;SDS011;49136;47.416;19.402;2024-02-26T11:16:34;333.15;;;306.92;;
63050;SDS011;49136;47.416;19.402;2024-02-26T11:19:01;364.92;;;336.42;;
63050;SDS011;49136;47.416;19.402;2024-02-26T11:21:27;407.75;;;374.13;;
63050;SDS011;49136;47.416;19.402;2024-02-26T11:24:03;355.70;;;326.77;;
63050;SDS011;49136;47.416;19.402;2024-02-26T11:26:34;365.13;;;334.30;;
63050;SDS011;49136;47.416;19.402;2024-02-26T11:29:03;396.80;;;366.50;;
63050;SDS011;49136;47.416;19.402;2024-02-26T11:31:29;421.38;;;384.05;;
63050;SDS011;49136;47.416;19.402;2024-02-26T11:33:55;472.40;;;432.25;;
63050;SDS011;49136;47.416;19.402;2024-02-26T11:36:21;477.48;;;437.60;;
63050;SDS011;49136;47.416;19.402;2024-02-26T11:38:49;395.83;;;360.17;;
63050;SDS011;49136;47.416;19.402;2024-02-26T11:41:17;466.00;;;426.77;;
63050;SDS011;49136;47.416;19.402;2024-02-26T11:46:25;466.73;;;425.23;;
63050;SDS011;49136;47.416;19.402;2024-02-26T11:48:55;499.08;;;455.60;;
63050;SDS011;49136;47.416;19.402;2024-02-26T11:51:33;463.95;;;423.17;;
63050;SDS011;49136;47.416;19.402;2024-02-26T11:54:00;444.35;;;406.75;;
63050;SDS011;49136;47.416;19.402;2024-02-26T11:56:25;465.90;;;423.63;;
63050;SDS011;49136;47.416;19.402;2024-02-26T11:58:58;405.63;;;371.75;;
63050;SDS011;49136;47.416;19.402;2024-02-26T12:04:02;412.40;;;376.83;;
63050;SDS011;49136;47.416;19.402;2024-02-26T12:06:30;475.75;;;436.70;;
63050;SDS011;49136;47.416;19.402;2024-02-26T12:08:56;447.10;;;408.92;;
63050;SDS011;49136;47.416;19.402;2024-02-26T12:11:21;458.75;;;420.15;;
63050;SDS011;49136;47.416;19.402;2024-02-26T12:13:47;412.98;;;381.50;;
63050;SDS011;49136;47.416;19.402;2024-02-26T12:19:23;366.80;;;338.58;;
63050;SDS011;49136;47.416;19.402;2024-02-26T12:21:51;381.55;;;352.10;;
63050;SDS011;49136;47.416;19.402;2024-02-26T12:24:20;362.80;;;335.38;;
63050;SDS011;49136;47.416;19.402;2024-02-26T12:26:46;359.05;;;331.08;;
63050;SDS011;49136;47.416;19.402;2024-02-26T12:29:12;322.27;;;299.00;;
63050;SDS011;49136;47.416;19.402;2024-02-26T12:31:38;321.17;;;296.35;;
63050;SDS011;49136;47.416;19.402;2024-02-26T12:34:05;328.83;;;302.38;;
63050;SDS011;49136;47.416;19.402;2024-02-26T12:36:34;337.58;;;311.85;;
63050;SDS011;49136;47.416;19.402;2024-02-26T12:39:01;322.30;;;297.08;;
63050;SDS011;49136;47.416;19.402;2024-02-26T12:41:27;333.55;;;306.75;;
63050;SDS011;49136;47.416;19.402;2024-02-26T12:43:55;388.27;;;356.45;;
63050;SDS011;49136;47.416;19.402;2024-02-26T12:46:21;340.55;;;312.70;;
63050;SDS011;49136;47.416;19.402;2024-02-26T12:48:46;312.35;;;287.58;;
63050;SDS011;49136;47.416;19.402;2024-02-26T12:51:14;338.02;;;310.02;;
63050;SDS011;49136;47.416;19.402;2024-02-26T12:53:41;335.58;;;308.67;;
63050;SDS011;49136;47.416;19.402;2024-02-26T12:56:09;323.20;;;296.80;;
63050;SDS011;49136;47.416;19.402;2024-02-26T12:58:36;283.17;;;261.70;;
63050;SDS011;49136;47.416;19.402;2024-02-26T13:01:04;283.58;;;262.67;;
63050;SDS011;49136;47.416;19.402;2024-02-26T13:03:30;353.10;;;323.92;;
63050;SDS011;49136;47.416;19.402;2024-02-26T13:05:56;357.48;;;329.98;;
63050;SDS011;49136;47.416;19.402;2024-02-26T13:08:23;350.17;;;321.80;;
63050;SDS011;49136;47.416;19.402;2024-02-26T13:10:50;293.75;;;270.95;;
63050;SDS011;49136;47.416;19.402;2024-02-26T13:13:17;323.98;;;298.33;;
63050;SDS011;49136;47.416;19.402;2024-02-26T13:15:44;326.35;;;302.35;;
63050;SDS011;49136;47.416;19.402;2024-02-26T13:18:11;324.35;;;299.98;;
63050;SDS011;49136;47.416;19.402;2024-02-26T13:20:38;341.83;;;314.70;;
63050;SDS011;49136;47.416;19.402;2024-02-26T13:23:07;308.27;;;285.08;;
63050;SDS011;49136;47.416;19.402;2024-02-26T13:25:35;282.02;;;259.40;;
63050;SDS011;49136;47.416;19.402;2024-02-26T13:28:07;350.55;;;322.48;;
63050;SDS011;49136;47.416;19.402;2024-02-26T13:30:52;313.67;;;288.88;;
63050;SDS011;49136;47.416;19.402;2024-02-26T13:33:18;368.98;;;338.65;;
63050;SDS011;49136;47.416;19.402;2024-02-26T13:35:44;280.83;;;259.58;;
63050;SDS011;49136;47.416;19.402;2024-02-26T13:38:10;298.80;;;275.38;;
63050;SDS011;49136;47.416;19.402;2024-02-26T13:40:36;267.10;;;246.85;;
63050;SDS011;49136;47.416;19.402;2024-02-26T13:43:01;284.83;;;264.50;;
63050;SDS011;49136;47.416;19.402;2024-02-26T13:45:27;295.63;;;272.73;;
63050;SDS011;49136;47.416;19.402;2024-02-26T13:47:52;344.45;;;316.40;;
63050;SDS011;49136;47.416;19.402;2024-02-26T13:50:18;225.90;;;209.38;;
63050;SDS011;49136;47.416;19.402;2024-02-26T13:52:46;347.27;;;320.35;;
63050;SDS011;49136;47.416;19.402;2024-02-26T13:55:12;339.52;;;311.58;;
63050;SDS011;49136;47.416;19.402;2024-02-26T13:57:39;390.02;;;359.27;;
63050;SDS011;49136;47.416;19.402;2024-02-26T14:00:05;346.85;;;318.38;;
63050;SDS011;49136;47.416;19.402;2024-02-26T14:02:32;403.35;;;372.48;;
63050;SDS011;49136;47.416;19.402;2024-02-26T14:05:01;335.05;;;309.38;;